Time;durP1;ratioP1;P1;durP2;ratioP2;P2;SDS_P1;SDS_P2;PMS_P1;PMS_P2;Temp;Humidity;BMP_temperature;BMP_pressure;BME280_temperature;BME280_humidity;BME280_pressure;Samples;Min_cycle;Max_cycle;Signal;HPM_P1;HPM_P2
2022/07/23 00:00:21;;;;;;;3.83;2.05;;;;;;;19.04;64.13;101045.09;7397178;19;20015;-54
2022/07/23 00:02:49;;;;;;;5.78;2.08;;;;;;;19.01;64.33;101040.28;7395726;19;20014;-54
2022/07/23 00:05:17;;;;;;;3.40;1.80;;;;;;;19.00;64.35;101040.69;7397810;19;20382;-52
2022/07/23 00:07:44;;;;;;;4.35;2.25;;;;;;;18.97;64.39;101036.69;7395361;19;20129;-49
2022/07/23 00:10:12;;;;;;;5.00;2.05;;;;;;;19.02;64.53;101032.66;7398439;19;20022;-52
2022/07/23 00:12:40;;;;;;;2.95;2.05;;;;;;;19.06;64.09;101033.50;7400411;19;20133;-51
2022/07/23 00:15:18;;;;;;;4.47;2.55;;;;;;;19.10;63.93;101032.31;7393357;19;20030;-48
2022/07/23 00:17:46;;;;;;;5.40;2.10;;;;;;;19.11;63.71;101027.50;7398532;19;20099;-54
2022/07/23 00:20:14;;;;;;;4.28;1.98;;;;;;;19.09;64.09;101024.31;7396352;19;20524;-53
2022/07/23 00:22:53;;;;;;;6.57;2.20;;;;;;;19.01;64.05;101019.88;7397728;19;20021;-52
2022/07/23 00:25:21;;;;;;;4.32;1.85;;;;;;;18.93;64.14;101016.19;7396352;19;20007;-50
2022/07/23 00:35:08;;;;;;;3.10;1.80;;;;;;;18.90;63.54;101019.00;7397165;19;20014;-53
2022/07/23 00:37:35;;;;;;;5.15;1.80;;;;;;;18.90;63.37;101019.81;7393575;19;20019;-55
2022/07/23 00:40:03;;;;;;;3.95;2.13;;;;;;;18.93;63.52;101013.41;7393349;19;20014;-50
2022/07/23 00:42:32;;;;;;;3.28;2.00;;;;;;;19.00;62.71;101015.44;7398167;19;20014;-52
2022/07/23 00:45:00;;;;;;;4.32;1.60;;;;;;;19.02;62.07;101015.84;7393258;19;20011;-51
2022/07/23 00:47:27;;;;;;;2.63;1.55;;;;;;;19.02;61.77;101010.22;7398306;19;20126;-51
2022/07/23 00:49:55;;;;;;;2.35;1.40;;;;;;;19.02;61.50;101022.25;7390739;19;20015;-53
2022/07/23 00:52:22;;;;;;;3.00;1.63;;;;;;;19.01;61.25;101008.63;7399126;19;20018;-52
2022/07/23 00:54:50;;;;;;;2.60;1.23;;;;;;;19.05;61.12;101009.44;7395691;19;21155;-54
2022/07/23 00:57:18;;;;;;;1.48;1.38;;;;;;;19.07;60.75;101001.41;7395849;19;20006;-54
2022/07/23 01:10:33;;;;;;;1.45;1.00;;;;;;;18.93;61.55;100995.78;7396384;19;20003;-52
2022/07/23 01:13:21;;;;;;;1.38;1.00;;;;;;;18.92;61.79;100991.34;7398672;19;20480;-54
2022/07/23 01:16:09;;;;;;;1.25;1.15;;;;;;;18.83;62.73;100986.91;7395285;19;20495;-52
2022/07/23 01:18:58;;;;;;;1.92;0.80;;;;;;;18.81;63.20;100983.72;7395035;19;20010;-55
2022/07/23 01:21:50;;;;;;;0.95;0.85;;;;;;;18.77;63.53;100974.47;7398197;19;20024;-53
2022/07/23 01:27:45;;;;;;;1.10;1.00;;;;;;;18.74;63.99;100972.44;7395473;19;20352;-51
2022/07/23 01:30:33;;;;;;;1.05;0.93;;;;;;;18.72;64.50;100968.44;7394064;19;20483;-51
2022/07/23 01:33:24;;;;;;;1.15;0.90;;;;;;;18.65;65.15;100969.22;7395879;19;20003;-52
2022/07/23 01:36:12;;;;;;;0.90;0.90;;;;;;;18.67;65.21;100966.00;7394245;19;20468;-54
2022/07/23 01:39:01;;;;;;;1.15;0.82;;;;;;;18.71;65.42;100964.84;7396632;19;20018;-51
2022/07/23 01:41:49;;;;;;;1.00;0.90;;;;;;;18.70;65.15;100954.00;7397405;19;20006;-52
2022/07/23 01:44:39;;;;;;;2.80;1.08;;;;;;;18.67;65.29;100955.59;7395937;19;20078;-50
2022/07/23 01:47:32;;;;;;;1.42;1.33;;;;;;;18.66;65.63;100954.00;7405659;19;20006;-52
2022/07/23 01:50:19;;;;;;;1.27;1.08;;;;;;;18.68;65.68;100943.19;7401298;19;20086;-52
2022/07/23 01:53:26;;;;;;;2.45;1.40;;;;;;;18.64;65.92;100939.56;7402565;19;20007;-53
2022/07/23 01:56:14;;;;;;;1.08;0.98;;;;;;;18.59;66.35;100937.13;7402160;19;20028;-48
2022/07/23 01:59:02;;;;;;;1.15;1.08;;;;;;;18.57;66.07;100942.34;7401427;19;20018;-50
2022/07/23 02:01:51;;;;;;;2.30;1.25;;;;;;;18.60;66.58;100935.94;7404197;19;20038;-52
2022/07/23 02:04:39;;;;;;;1.80;1.40;;;;;;;18.59;66.71;100936.34;7399875;19;20037;-51
2022/07/23 02:07:27;;;;;;;1.20;1.10;;;;;;;18.58;66.44;100932.75;7403656;19;20014;-54
2022/07/23 02:10:20;;;;;;;1.17;0.88;;;;;;;18.53;66.82;100929.53;7401417;19;20007;-51
2022/07/23 02:13:08;;;;;;;1.35;1.27;;;;;;;18.50;66.69;100928.31;7402893;19;20014;-53
2022/07/23 02:15:56;;;;;;;2.33;1.15;;;;;;;18.47;66.92;100933.84;7404098;19;20021;-48
2022/07/23 02:18:44;;;;;;;1.40;1.27;;;;;;;18.42;67.30;100926.63;7398937;19;20200;-49
2022/07/23 02:21:32;;;;;;;12.13;2.00;;;;;;;18.36;67.64;100921.78;7404914;19;20114;-50
2022/07/23 02:24:20;;;;;;;1.90;1.05;;;;;;;18.27;67.95;100913.72;7400291;19;20017;-50
2022/07/23 02:27:08;;;;;;;1.73;1.20;;;;;;;18.23;67.82;100912.94;7402252;19;20011;-49
2022/07/23 02:29:55;;;;;;;2.63;1.35;;;;;;;18.22;67.77;100911.31;7401703;19;20025;-48
2022/07/23 02:32:45;;;;;;;1.70;1.20;;;;;;;18.17;67.65;100904.09;7402238;19;20018;-50
2022/07/23 02:35:32;;;;;;;1.25;0.95;;;;;;;18.15;67.63;100891.66;7401229;19;20017;-50
2022/07/23 02:38:22;;;;;;;2.20;1.58;;;;;;;18.14;67.14;100892.84;7403208;19;20018;-51
2022/07/23 02:41:10;;;;;;;2.67;0.93;;;;;;;18.15;67.15;100894.47;7400984;19;20422;-51
2022/07/23 02:43:38;;;;;;;2.45;1.58;;;;;;;18.14;66.90;100893.66;7397474;19;20108;-54
2022/07/23 02:46:05;;;;;;;2.03;1.15;;;;;;;18.11;66.40;100890.84;7402492;19;20034;-48
2022/07/23 02:48:33;;;;;;;1.52;1.02;;;;;;;18.08;66.97;100884.00;7397951;19;20025;-52
2022/07/23 02:51:01;;;;;;;2.30;1.30;;;;;;;18.09;66.48;100884.81;7400813;19;20518;-51
2022/07/23 02:53:34;;;;;;;2.70;0.90;;;;;;;18.14;66.46;100893.66;7398615;19;20345;-51
2022/07/23 02:56:02;;;;;;;2.33;1.20;;;;;;;18.16;66.10;100884.88;7396494;19;20042;-51
2022/07/23 02:58:29;;;;;;;3.72;1.38;;;;;;;18.14;66.17;100881.66;7395758;19;20082;-50
2022/07/23 03:00:58;;;;;;;2.38;1.20;;;;;;;18.13;65.92;100874.44;7392424;19;20019;-54
2022/07/23 03:03:26;;;;;;;4.85;1.40;;;;;;;18.11;66.04;100874.03;7398143;19;20011;-52
2022/07/23 03:05:56;;;;;;;2.50;1.30;;;;;;;18.13;66.28;100868.84;7394092;19;20052;-54
2022/07/23 03:08:25;;;;;;;2.17;1.27;;;;;;;18.13;66.23;100866.03;7399719;19;20029;-53
2022/07/23 03:10:53;;;;;;;1.63;1.52;;;;;;;18.11;66.19;100862.81;7398339;19;20014;-52
2022/07/23 03:13:20;;;;;;;2.42;1.50;;;;;;;18.06;66.52;100874.41;7395490;19;20055;-49
2022/07/23 03:15:48;;;;;;;2.38;1.35;;;;;;;18.03;66.61;100861.19;7398200;19;20018;-53
2022/07/23 03:18:15;;;;;;;3.78;1.70;;;;;;;18.00;66.50;100859.97;7399948;19;20369;-52
2022/07/23 03:20:43;;;;;;;1.80;1.40;;;;;;;18.01;66.93;100869.16;7399153;19;20023;-53
2022/07/23 03:26:57;;;;;;;2.85;1.85;;;;;;;17.93;67.17;100859.13;7392266;19;20348;-53
2022/07/23 03:29:24;;;;;;;3.05;1.95;;;;;;;17.93;67.59;100854.34;7393884;19;20019;-53
2022/07/23 03:35:23;;;;;;;3.80;2.53;;;;;;;17.86;68.54;100845.09;7394648;19;20018;-53
2022/07/23 03:38:23;;;;;;;2.45;2.25;;;;;;;17.82;69.10;100844.28;7392623;19;20376;-53
2022/07/23 03:40:50;;;;;;;3.00;2.80;;;;;;;17.78;69.42;100835.03;7398532;19;20007;-52
2022/07/23 03:43:18;;;;;;;4.47;2.83;;;;;;;17.74;70.07;100823.81;7396697;19;20010;-54
2022/07/23 03:45:46;;;;;;;3.63;2.53;;;;;;;17.73;70.22;100832.63;7395025;19;20486;-54
2022/07/23 03:48:15;;;;;;;3.75;2.42;;;;;;;17.75;70.31;100825.44;7396897;19;20022;-50
2022/07/23 03:50:44;;;;;;;3.95;2.65;;;;;;;17.73;70.82;100818.63;7394100;19;20021;-49
2022/07/23 03:53:12;;;;;;;4.25;2.33;;;;;;;17.73;70.93;100815.81;7397365;19;20006;-53
2022/07/23 03:55:39;;;;;;;5.05;2.60;;;;;;;17.70;71.52;100805.38;7397604;19;20017;-50
2022/07/23 03:58:09;;;;;;;5.30;2.80;;;;;;;17.68;71.68;100813.38;7391979;19;20039;-54
2022/07/23 04:00:37;;;;;;;3.15;2.65;;;;;;;17.66;71.74;100813.75;7393204;19;20020;-50
2022/07/23 04:03:05;;;;;;;3.13;2.38;;;;;;;17.63;72.55;100812.56;7394219;19;20491;-52
2022/07/23 04:05:33;;;;;;;5.75;2.67;;;;;;;17.61;72.68;100805.75;7392614;19;20017;-51
2022/07/23 04:08:05;;;;;;;17.10;4.05;;;;;;;17.62;72.86;100799.75;7393768;19;20085;-54
2022/07/23 04:10:35;;;;;;;8.45;2.60;;;;;;;17.58;73.40;100793.31;7397502;19;20034;-52
2022/07/23 04:13:05;;;;;;;3.67;2.88;;;;;;;17.57;73.29;100786.13;7396922;19;20364;-55
2022/07/23 04:15:33;;;;;;;6.07;3.40;;;;;;;17.61;73.81;100786.13;7393966;19;20019;-55
2022/07/23 04:18:01;;;;;;;4.07;3.42;;;;;;;17.64;73.92;100788.16;7394825;19;20029;-51
2022/07/23 04:20:38;;;;;;;3.65;3.35;;;;;;;17.65;73.79;100792.56;7390813;19;20370;-55
2022/07/23 04:23:09;;;;;;;5.03;3.13;;;;;;;17.66;73.82;100782.19;7397456;19;20007;-54
2022/07/23 04:25:38;;;;;;;4.60;3.03;;;;;;;17.67;73.75;100786.56;7395688;19;20011;-55
2022/07/23 04:28:06;;;;;;;5.10;3.15;;;;;;;17.65;74.18;100775.78;7391251;19;20630;-54
2022/07/23 04:30:33;;;;;;;7.63;4.50;;;;;;;17.64;74.20;100780.56;7394116;19;20014;-51
2022/07/23 04:33:05;;;;;;;5.03;3.38;;;;;;;17.62;74.15;100782.16;7394572;19;20012;-54
2022/07/23 04:35:34;;;;;;;3.83;2.90;;;;;;;17.61;74.96;100780.53;7395056;19;20010;-54
2022/07/23 04:38:11;;;;;;;5.90;3.63;;;;;;;17.59;75.10;100778.16;7398576;19;20010;-52
2022/07/23 04:40:40;;;;;;;5.32;3.38;;;;;;;17.60;75.10;100771.38;7395790;19;20085;-54
2022/07/23 04:43:07;;;;;;;4.72;3.17;;;;;;;17.61;75.16;100770.16;7395904;19;20021;-48
2022/07/23 04:45:40;;;;;;;7.50;3.78;;;;;;;17.63;75.33;100756.56;7391303;19;20066;-54
2022/07/23 04:48:10;;;;;;;4.47;3.10;;;;;;;17.62;75.62;100771.75;7395286;19;20501;-52
2022/07/23 04:50:38;;;;;;;3.55;2.90;;;;;;;17.58;75.75;100765.34;7393988;19;20014;-50
2022/07/23 04:53:14;;;;;;;6.40;3.20;;;;;;;17.56;76.09;100767.72;7396641;19;20015;-49
2022/07/23 04:55:43;;;;;;;6.38;3.55;;;;;;;17.56;76.00;100767.72;7391362;19;20074;-54
2022/07/23 04:58:10;;;;;;;6.72;3.88;;;;;;;17.58;76.21;100768.13;7393817;19;20083;-52
2022/07/23 05:00:38;;;;;;;6.95;3.97;;;;;;;17.59;76.14;100775.34;7394224;19;20007;-55
2022/07/23 05:03:05;;;;;;;5.97;4.22;;;;;;;17.56;76.58;100775.31;7391594;19;20025;-53
2022/07/23 05:05:33;;;;;;;10.40;3.85;;;;;;;17.57;76.70;100774.13;7388984;19;20025;-50
2022/07/23 05:08:09;;;;;;;7.20;4.07;;;;;;;17.60;76.51;100773.34;7397744;19;20101;-53
2022/07/23 05:10:38;;;;;;;6.50;3.88;;;;;;;17.60;77.24;100774.16;7392893;19;20044;-55
2022/07/23 05:13:06;;;;;;;5.05;3.85;;;;;;;17.62;77.02;100771.75;7390581;19;20010;-55
2022/07/23 05:15:34;;;;;;;4.40;3.88;;;;;;;17.65;76.97;100770.19;7386929;19;20014;-53
2022/07/23 05:18:02;;;;;;;5.80;4.38;;;;;;;17.68;77.25;100768.59;7395985;19;20025;-54
2022/07/23 05:20:31;;;;;;;8.55;4.13;;;;;;;17.70;77.49;100771.78;7401699;19;20014;-51
2022/07/23 05:22:58;;;;;;;5.78;3.85;;;;;;;17.69;77.71;100767.38;7398867;19;20006;-51
2022/07/23 05:25:26;;;;;;;5.95;3.60;;;;;;;17.72;77.74;100775.00;7402918;19;20022;-52
2022/07/23 05:27:53;;;;;;;7.72;3.63;;;;;;;17.73;77.68;100771.81;7404114;19;20021;-50
2022/07/23 05:30:21;;;;;;;7.57;3.97;;;;;;;17.74;78.21;100773.41;7399252;19;20022;-52
2022/07/23 05:33:24;;;;;;;4.20;3.80;;;;;;;17.71;78.40;100770.59;7400570;19;20017;-54
2022/07/23 05:35:52;;;;;;;8.88;3.42;;;;;;;17.73;78.12;100765.41;7400200;19;20021;-54
2022/07/23 05:38:28;;;;;;;6.50;4.32;;;;;;;17.74;78.16;100755.81;7401834;19;20078;-52
2022/07/23 05:40:59;;;;;;;6.63;4.38;;;;;;;17.75;78.29;100755.41;7396960;19;20512;-54
2022/07/23 05:43:29;;;;;;;9.13;4.30;;;;;;;17.76;78.52;100745.03;7402106;19;20386;-53
2022/07/23 05:45:58;;;;;;;5.88;3.90;;;;;;;17.77;78.38;100744.63;7393890;19;20478;-51
2022/07/23 05:48:26;;;;;;;8.80;4.18;;;;;;;17.77;78.88;100746.63;7396704;19;20014;-53
2022/07/23 05:51:06;;;;;;;9.45;4.60;;;;;;;17.77;78.63;100738.22;7397666;19;20480;-51
2022/07/23 05:53:35;;;;;;;8.93;4.18;;;;;;;17.76;79.24;100742.22;7400321;19;20018;-50
2022/07/23 05:56:44;;;;;;;8.00;4.13;;;;;;;17.76;79.36;100736.63;7400194;19;20031;-50
2022/07/23 05:59:32;;;;;;;6.00;3.83;;;;;;;17.75;79.55;100735.00;7398499;19;20010;-55
2022/07/23 06:02:20;;;;;;;7.93;4.20;;;;;;;17.72;79.46;100724.59;7401651;19;20010;-53
2022/07/23 06:04:48;;;;;;;9.70;5.00;;;;;;;17.73;79.81;100729.00;7402561;19;20030;-50
2022/07/23 06:07:24;;;;;;;20.30;5.13;;;;;;;17.70;80.16;100730.59;7396987;19;20019;-54
2022/07/23 06:09:52;;;;;;;7.20;3.80;;;;;;;17.70;80.38;100735.38;7399050;19;20018;-51
2022/07/23 06:12:19;;;;;;;5.70;3.88;;;;;;;17.71;80.71;100729.41;7395579;19;20011;-50
2022/07/23 06:14:49;;;;;;;6.65;3.53;;;;;;;17.71;80.85;100717.41;7396561;19;20018;-53
2022/07/23 06:17:17;;;;;;;9.38;4.35;;;;;;;17.73;80.87;100720.59;7400823;19;20353;-51
2022/07/23 06:19:44;;;;;;;6.25;4.25;;;;;;;17.73;80.77;100727.00;7398183;19;20014;-55
2022/07/23 06:22:12;;;;;;;8.95;4.40;;;;;;;17.73;80.81;100726.22;7399029;19;20502;-50
2022/07/23 06:24:39;;;;;;;7.00;3.22;;;;;;;17.70;80.77;100721.38;7397186;19;20468;-51
2022/07/23 06:27:07;;;;;;;6.53;3.22;;;;;;;17.68;81.04;100716.19;7398539;19;20034;-50
2022/07/23 06:29:35;;;;;;;5.30;3.30;;;;;;;17.67;80.99;100705.38;7396771;19;20483;-51
2022/07/23 06:32:02;;;;;;;6.70;3.33;;;;;;;17.63;81.07;100717.34;7393640;19;20033;-51
2022/07/23 06:34:30;;;;;;;6.25;3.53;;;;;;;17.63;81.22;100714.56;7397557;19;20380;-52
2022/07/23 06:40:30;;;;;;;5.65;2.97;;;;;;;17.61;80.47;100716.94;7398801;19;20031;-53
2022/07/23 06:42:58;;;;;;;5.32;3.72;;;;;;;17.61;80.90;100708.56;7394527;19;20028;-56
2022/07/23 06:45:27;;;;;;;8.80;4.20;;;;;;;17.62;81.14;100700.97;7392160;19;20018;-52
2022/07/23 06:48:28;;;;;;;6.60;4.43;;;;;;;17.60;82.21;100714.56;7400728;19;20334;-51
2022/07/23 06:51:16;;;;;;;5.90;3.43;;;;;;;17.60;81.61;100706.97;7403280;19;20006;-52
2022/07/23 06:54:04;;;;;;;6.05;3.45;;;;;;;17.63;81.59;100708.19;7400728;19;21091;-54
2022/07/23 06:56:52;;;;;;;8.13;3.75;;;;;;;17.60;81.72;100698.56;7399252;19;20010;-55
2022/07/23 06:59:47;;;;;;;7.20;3.70;;;;;;;17.57;82.47;100702.16;7398114;19;20488;-56
2022/07/23 07:02:21;;;;;;;6.57;4.17;;;;;;;17.57;82.56;100690.97;7399319;19;20010;-55
2022/07/23 07:04:49;;;;;;;8.98;3.97;;;;;;;17.55;82.92;100693.31;7397758;19;20457;-54
2022/07/23 07:07:36;;;;;;;7.90;3.80;;;;;;;17.50;83.88;100679.69;7400482;19;20018;-53
2022/07/23 07:10:04;;;;;;;7.72;4.15;;;;;;;17.50;83.42;100679.69;7394711;19;20010;-53
2022/07/23 07:12:32;;;;;;;7.35;3.80;;;;;;;17.48;82.85;100682.06;7396521;19;20040;-56
2022/07/23 07:15:00;;;;;;;12.10;4.10;;;;;;;17.47;83.42;100677.66;7399616;19;20006;-53
2022/07/23 07:17:28;;;;;;;8.35;4.00;;;;;;;17.50;83.24;100685.28;7397108;19;20014;-51
2022/07/23 07:19:55;;;;;;;9.98;4.97;;;;;;;17.51;83.44;100678.50;7397907;19;20030;-54
2022/07/23 07:22:23;;;;;;;7.32;5.30;;;;;;;17.54;83.55;100674.94;7397097;19;20011;-55
2022/07/23 07:24:50;;;;;;;8.35;5.40;;;;;;;17.55;83.73;100670.16;7392995;19;20021;-53
2022/07/23 07:30:47;;;;;;;7.53;4.18;;;;;;;17.60;83.39;100650.97;7394643;19;20014;-53
2022/07/23 07:33:25;;;;;;;7.07;3.70;;;;;;;17.64;84.54;100654.56;7398434;19;20468;-54
2022/07/23 07:35:53;;;;;;;7.78;4.43;;;;;;;17.68;83.37;100646.19;7393906;19;20018;-55
2022/07/23 07:38:20;;;;;;;9.88;3.95;;;;;;;17.72;83.71;100651.78;7399989;19;20011;-54
2022/07/23 07:40:48;;;;;;;12.05;6.00;;;;;;;17.72;84.10;100647.00;7396320;19;20010;-55
2022/07/23 07:43:15;;;;;;;7.00;3.90;;;;;;;17.77;84.20;100648.59;7396184;19;20011;-55
2022/07/23 07:45:43;;;;;;;5.28;3.80;;;;;;;17.79;84.03;100644.19;7392967;19;20014;-55
2022/07/23 07:48:10;;;;;;;10.85;5.00;;;;;;;17.85;84.09;100656.63;7400209;19;20344;-54
2022/07/23 07:50:38;;;;;;;6.97;4.10;;;;;;;17.89;84.15;100651.03;7392090;19;20503;-54
2022/07/23 07:53:06;;;;;;;9.65;4.40;;;;;;;17.92;84.28;100653.06;7394615;19;20033;-62
2022/07/23 07:55:33;;;;;;;8.45;5.15;;;;;;;17.90;84.75;100638.63;7392910;19;20021;-61
2022/07/23 07:58:01;;;;;;;7.40;4.40;;;;;;;17.86;84.70;100640.63;7392613;19;20467;-61
2022/07/23 08:00:29;;;;;;;7.93;4.25;;;;;;;17.83;85.36;100636.63;7392405;19;20057;-53
2022/07/23 08:02:56;;;;;;;9.25;4.50;;;;;;;17.89;85.29;100646.25;7398517;19;20534;-59
2022/07/23 08:05:27;;;;;;;9.55;4.93;;;;;;;17.94;85.39;100642.25;7391767;19;20124;-58
2022/07/23 08:07:57;;;;;;;11.27;5.13;;;;;;;17.98;85.60;100637.44;7400902;19;20011;-59
2022/07/23 08:10:26;;;;;;;8.93;4.93;;;;;;;17.97;85.19;100633.06;7397284;19;20002;-51
2022/07/23 08:12:58;;;;;;;7.78;5.75;;;;;;;17.96;85.86;100635.03;7396867;19;20018;-60
2022/07/23 08:15:28;;;;;;;10.45;4.82;;;;;;;17.95;85.56;100627.06;7394087;19;20014;-57
2022/07/23 08:17:56;;;;;;;9.82;5.10;;;;;;;17.97;85.53;100625.47;7396176;19;20014;-59
2022/07/23 08:20:25;;;;;;;13.88;5.70;;;;;;;18.02;85.95;100621.44;7396956;19;20015;-58
2022/07/23 08:22:59;;;;;;;12.93;5.32;;;;;;;18.03;86.01;100611.84;7396822;19;20041;-61
2022/07/23 08:25:32;;;;;;;;;;;;;;;18.03;87.74;100606.25;7398320;19;20007;-62
2022/07/23 08:28:01;;;;;;;9.60;5.07;;;;;;;18.04;85.96;100607.84;7393094;19;20336;-62
2022/07/23 08:30:30;;;;;;;11.82;4.63;;;;;;;17.98;86.20;100603.81;7397095;19;20036;-61
2022/07/23 08:33:04;;;;;;;13.15;5.43;;;;;;;17.95;86.08;100591.41;7396984;19;20011;-61
2022/07/23 08:35:38;;;;;;;10.88;5.25;;;;;;;17.98;86.31;100603.81;7397226;19;20011;-60
2022/07/23 08:38:26;;;;;;;12.02;5.22;;;;;;;18.09;85.95;100596.22;7400392;19;20018;-60
2022/07/23 08:41:07;;;;;;;13.57;5.18;;;;;;;18.12;86.16;100593.44;7396290;19;20006;-61
2022/07/23 08:43:35;;;;;;;10.57;4.68;;;;;;;18.12;86.21;100587.03;7394651;19;20381;-62
2022/07/23 08:46:04;;;;;;;15.52;5.18;;;;;;;18.11;86.29;100582.63;7393522;19;20090;-61
2022/07/23 08:48:34;;;;;;;12.70;5.43;;;;;;;18.13;86.32;100588.66;7396576;19;20009;-61
2022/07/23 08:51:04;;;;;;;16.00;5.75;;;;;;;18.16;86.12;100588.63;7396232;19;20010;-60
2022/07/23 08:57:17;;;;;;;13.07;5.80;;;;;;;18.27;86.64;100582.25;7392694;19;20022;-62
2022/07/23 08:59:45;;;;;;;13.38;4.80;;;;;;;18.30;85.90;100571.00;7397230;19;20018;-62
2022/07/23 09:06:00;;;;;;;8.85;4.90;;;;;;;18.29;85.89;100560.22;7395518;19;20035;-62
2022/07/23 09:09:29;;;;;;;10.27;5.20;;;;;;;18.22;86.42;100570.22;7396200;19;20010;-62
2022/07/23 09:16:06;;;;;;;19.52;5.47;;;;;;;18.33;86.51;100561.81;7398142;19;20531;-58
2022/07/23 09:22:26;;;;;;;15.60;4.60;;;;;;;18.33;86.63;100556.19;7393543;19;20038;-62
2022/07/23 09:29:02;;;;;;;16.85;5.45;;;;;;;18.26;87.51;100547.81;7395354;19;20011;-52
2022/07/23 09:31:49;;;;;;;9.63;4.85;;;;;;;18.26;86.63;100547.81;7394338;19;20010;-56
2022/07/23 09:34:40;;;;;;;12.55;5.40;;;;;;;18.27;87.05;100558.59;7394893;19;20375;-50
2022/07/23 09:37:13;;;;;;;13.55;5.65;;;;;;;18.33;86.81;100547.78;7398124;19;20513;-53
2022/07/23 09:39:42;;;;;;;14.63;5.97;;;;;;;18.36;86.62;100558.19;7398360;19;20003;-54
2022/07/23 09:42:16;;;;;;;14.15;4.88;;;;;;;18.35;86.55;100539.78;7392475;19;20011;-54
2022/07/23 09:45:03;;;;;;;14.13;6.18;;;;;;;18.36;86.51;100535.78;7397421;19;20019;-51
2022/07/23 09:48:15;;;;;;;12.68;4.88;;;;;;;18.37;86.69;100528.97;7393924;19;20014;-51
2022/07/23 09:51:04;;;;;;;16.70;4.97;;;;;;;18.40;86.01;100530.94;7397324;19;20013;-52
2022/07/23 09:53:53;;;;;;;11.55;5.22;;;;;;;18.40;86.72;100519.75;7396255;19;20017;-50
2022/07/23 09:56:21;;;;;;;17.73;4.60;;;;;;;18.43;86.46;100518.94;7394754;19;20014;-54
2022/07/23 09:59:16;;;;;;;13.30;4.70;;;;;;;18.48;86.43;100518.56;7395592;19;20014;-51
2022/07/23 10:09:52;;;;;;;11.95;4.45;;;;;;;18.94;86.39;100500.78;7404800;19;20003;-51
2022/07/23 10:16:13;;;;;;;10.02;3.05;;;;;;;19.20;86.16;100497.44;7404110;19;20042;-51
2022/07/23 10:19:13;;;;;;;6.38;2.15;;;;;;;19.27;86.37;100498.19;7404855;19;20019;-51
2022/07/23 10:22:29;;;;;;;4.80;2.15;;;;;;;19.37;86.30;100499.34;7401412;19;20011;-52
2022/07/23 10:25:26;;;;;;;4.80;1.63;;;;;;;19.46;86.09;100496.88;7400996;19;20412;-52
2022/07/23 10:39:26;;;;;;;2.65;1.30;;;;;;;19.63;85.27;100469.91;7396241;19;20018;-48
2022/07/23 10:53:05;;;;;;;2.63;1.20;;;;;;;19.72;83.93;100459.00;7403460;19;20483;-52
2022/07/23 11:00:13;;;;;;;3.35;1.10;;;;;;;19.75;83.80;100452.56;7394854;19;20099;-52
2022/07/23 11:09:59;;;;;;;2.88;2.05;;;;;;;19.68;82.79;100450.59;7397270;19;20007;-52
2022/07/23 11:12:34;;;;;;;2.38;1.60;;;;;;;19.71;83.31;100449.78;7397757;19;20015;-49
2022/07/23 11:18:44;;;;;;;3.07;1.50;;;;;;;19.78;83.84;100452.50;7399739;19;20496;-50
2022/07/23 11:25:35;;;;;;;4.35;1.48;;;;;;;20.01;83.36;100438.63;7403385;19;20349;-49
2022/07/23 11:28:25;;;;;;;3.13;1.20;;;;;;;20.11;83.56;100434.16;7399806;19;20002;-50
2022/07/23 11:30:53;;;;;;;1.80;1.23;;;;;;;20.17;83.22;100424.06;7394613;19;20015;-49
2022/07/23 11:33:21;;;;;;;3.40;1.27;;;;;;;20.20;83.01;100425.22;7401737;19;20018;-51
2022/07/23 11:40:02;;;;;;;2.17;1.05;;;;;;;20.42;83.17;100424.59;7402961;19;19914;-49
2022/07/23 11:43:02;;;;;;;1.83;1.15;;;;;;;20.60;82.59;100416.72;7401797;19;20007;-48
2022/07/23 12:03:14;;;;;;;1.70;0.70;;;;;;;21.18;79.51;100407.09;7394657;19;20019;-50
2022/07/23 12:05:42;;;;;;;1.05;0.40;;;;;;;21.33;79.53;100398.44;7400357;19;20007;-55
2022/07/23 12:12:14;;;;;;;0.70;0.50;;;;;;;21.37;77.91;100404.78;7397633;19;20353;-50
2022/07/23 12:15:02;;;;;;;1.95;0.52;;;;;;;21.36;78.05;100403.22;7398688;19;20009;-53
2022/07/23 12:21:13;;;;;;;1.05;0.60;;;;;;;21.33;76.27;100406.88;7397523;19;20010;-54
2022/07/23 12:23:40;;;;;;;0.98;0.55;;;;;;;21.34;76.96;100405.66;7398896;19;20473;-55
2022/07/23 12:26:32;;;;;;;1.08;0.30;;;;;;;21.34;76.81;100425.38;7399789;19;20446;-52
2022/07/23 12:29:21;;;;;;;0.50;0.50;;;;;;;21.35;76.46;100413.69;7396015;19;20006;-51
2022/07/23 12:40:22;;;;;;;0.57;0.57;;;;;;;22.00;74.28;100397.31;7394815;19;20070;-49
2022/07/23 12:46:34;;;;;;;0.45;0.45;;;;;;;22.37;74.27;100386.47;7395252;19;20357;-53
2022/07/23 12:49:01;;;;;;;0.75;0.40;;;;;;;22.70;73.69;100389.44;7395100;19;20019;-49
2022/07/23 12:51:32;;;;;;;1.17;0.30;;;;;;;23.05;72.99;100371.72;7397212;19;20013;-51
2022/07/23 12:54:06;;;;;;;1.60;0.52;;;;;;;23.31;72.50;100386.81;7397881;19;20021;-52
2022/07/23 13:00:27;;;;;;;0.75;0.30;;;;;;;23.93;70.01;100388.50;7394240;19;20015;-53
2022/07/23 13:06:19;;;;;;;0.45;0.20;;;;;;;24.35;69.59;100367.53;7391944;19;20003;-50
2022/07/23 13:08:47;;;;;;;0.10;0.10;;;;;;;24.38;68.98;100360.19;7395572;19;20472;-50
2022/07/23 13:11:15;;;;;;;0.30;0.20;;;;;;;24.51;68.61;100358.19;7395365;19;20471;-52
2022/07/23 13:17:07;;;;;;;0.20;0.10;;;;;;;24.83;66.46;100327.66;7391613;19;20010;-50
2022/07/23 13:23:07;;;;;;;2.58;0.28;;;;;;;24.94;65.44;100340.72;7392903;19;20014;-52
2022/07/23 13:43:40;;;;;;;0.93;0.40;;;;;;;24.88;64.09;100315.00;7399529;19;20070;-52
2022/07/23 13:46:50;;;;;;;0.95;0.40;;;;;;;24.67;63.58;100327.75;7400861;19;20047;-55
2022/07/23 13:52:43;;;;;;;4.30;1.15;;;;;;;24.49;64.28;100321.06;7404567;19;20007;-51
2022/07/23 13:58:58;;;;;;;4.88;0.90;;;;;;;24.47;63.63;100334.84;7399876;19;20019;-51
2022/07/23 14:01:27;;;;;;;3.30;0.50;;;;;;;24.37;63.75;100330.31;7403957;19;20476;-52
2022/07/23 14:04:05;;;;;;;1.73;1.10;;;;;;;24.33;63.85;100329.63;7402380;19;20006;-51
2022/07/23 14:10:20;;;;;;;4.30;0.50;;;;;;;24.45;64.26;100324.00;7402612;19;20081;-48
2022/07/23 14:12:51;;;;;;;2.03;0.40;;;;;;;24.66;64.10;100331.03;7401183;19;20011;-49
2022/07/23 14:18:49;;;;;;;3.50;0.50;;;;;;;24.72;63.86;100293.22;7398877;19;20014;-50
2022/07/23 14:24:42;;;;;;;3.05;0.45;;;;;;;24.65;63.93;100298.28;7401044;19;20086;-48
2022/07/23 14:31:43;;;;;;;1.58;0.40;;;;;;;24.78;63.26;100299.13;7402625;19;20015;-48
2022/07/23 14:34:35;;;;;;;2.05;1.08;;;;;;;24.80;63.62;100276.81;7401747;19;20010;-50
2022/07/23 14:37:08;;;;;;;1.35;0.57;;;;;;;24.65;63.86;100284.94;7402280;19;20011;-51
2022/07/23 14:40:01;;;;;;;1.42;0.50;;;;;;;24.60;63.98;100270.53;7402443;19;20010;-50
2022/07/23 14:42:29;;;;;;;5.32;0.70;;;;;;;24.55;63.83;100280.41;7399536;19;20090;-49
2022/07/23 14:44:57;;;;;;;1.13;0.38;;;;;;;24.55;64.17;100274.75;7401324;19;20086;-51
2022/07/23 14:50:55;;;;;;;1.75;0.32;;;;;;;24.72;64.13;100267.75;7396370;19;20010;-44
2022/07/23 14:53:23;;;;;;;0.32;0.20;;;;;;;24.79;64.22;100256.22;7400118;19;20015;-49
2022/07/23 14:55:52;;;;;;;0.15;0.10;;;;;;;24.79;64.00;100264.69;7402676;19;20017;-52
2022/07/23 15:19:01;;;;;;;0.30;0.13;;;;;;;25.27;62.71;100234.38;7400689;19;20331;-54
2022/07/23 15:25:11;;;;;;;0.20;0.20;;;;;;;26.20;61.64;100232.63;7398137;19;20031;-56
2022/07/23 15:38:58;;;;;;;0.55;0.20;;;;;;;25.88;60.97;100211.91;7399304;19;20022;-60
2022/07/23 15:42:10;;;;;;;0.10;0.10;;;;;;;25.60;60.78;100232.03;7398750;19;20010;-61
2022/07/23 15:45:01;;;;;;;0.20;0.20;;;;;;;25.54;61.19;100223.31;7401806;19;20078;-60
2022/07/23 15:47:51;;;;;;;0.28;0.28;;;;;;;25.42;61.47;100212.78;7396956;19;20335;-59
2022/07/23 15:50:40;;;;;;;0.40;0.35;;;;;;;25.22;61.67;100223.63;7400386;19;20015;-60
2022/07/23 15:57:18;;;;;;;0.57;0.50;;;;;;;24.73;61.94;100218.34;7398589;19;20003;-62
2022/07/23 16:04:19;;;;;;;1.42;0.40;;;;;;;24.56;62.51;100214.06;7393247;19;20014;-60
2022/07/23 16:06:47;;;;;;;0.40;0.40;;;;;;;24.69;62.36;100209.19;7398877;19;20048;-60
2022/07/23 16:20:13;;;;;;;0.82;0.20;;;;;;;24.83;61.24;100188.16;7392198;19;20014;-60
2022/07/23 16:22:41;;;;;;;0.08;0.08;;;;;;;24.87;61.03;100176.69;7397610;19;20011;-60